createdAt,value
2017-11-23T00:02:15.861Z,100268.73
2017-11-23T00:04:43.398Z,100264.37
2017-11-23T00:07:10.899Z,100264.57
2017-11-23T00:09:38.440Z,100270.66
2017-11-23T00:12:05.962Z,100272.53
2017-11-23T00:14:33.473Z,100266.23
2017-11-23T00:17:00.992Z,100264.78
2017-11-23T00:19:28.477Z,100268.69
2017-11-23T00:21:55.978Z,100269.32
2017-11-23T00:24:23.500Z,100269.84
2017-11-23T00:26:51.037Z,100268.59
2017-11-23T00:29:18.534Z,100274.37
2017-11-23T00:31:46.100Z,100280.23
2017-11-23T00:34:13.637Z,100275.80
2017-11-23T00:36:41.134Z,100273.11
2017-11-23T00:39:08.628Z,100275.41
2017-11-23T00:41:36.149Z,100278.51
2017-11-23T00:44:04.033Z,100279.22
2017-11-23T00:46:31.520Z,100280.86
2017-11-23T00:48:59.141Z,100280.56
2017-11-23T00:51:26.636Z,100280.27
2017-11-23T00:53:54.141Z,100278.89
2017-11-23T00:56:21.812Z,100281.27
2017-11-23T00:58:49.305Z,100287.58
2017-11-23T01:01:16.793Z,100276.62
2017-11-23T01:03:44.336Z,100277.36
2017-11-23T01:06:11.824Z,100275.27
2017-11-23T01:08:39.318Z,100268.48
2017-11-23T01:11:06.879Z,100263.31
2017-11-23T01:13:34.363Z,100262.80
2017-11-23T01:16:01.857Z,100261.16
2017-11-23T01:18:29.381Z,100268.17
2017-11-23T01:20:57.720Z,100256.69
2017-11-23T01:23:25.280Z,100259.38
2017-11-23T01:25:52.806Z,100258.14
2017-11-23T01:28:20.293Z,100256.80
2017-11-23T01:30:47.820Z,100251.84
2017-11-23T01:33:15.309Z,100252.44
2017-11-23T01:35:42.798Z,100249.34
2017-11-23T01:38:10.320Z,100249.05
2017-11-23T01:40:37.819Z,100248.20
2017-11-23T01:43:05.320Z,100245.74
2017-11-23T01:45:32.849Z,100243.36
2017-11-23T01:48:00.355Z,100238.30
2017-11-23T01:50:27.883Z,100243.56
2017-11-23T01:52:55.394Z,100239.65
2017-11-23T01:55:22.933Z,100231.40
2017-11-23T01:57:50.446Z,100232.52
2017-11-23T02:00:17.947Z,100226.84
2017-11-23T02:02:45.503Z,100224.77
2017-11-23T02:05:12.990Z,100223.75
2017-11-23T02:07:40.481Z,100222.00
2017-11-23T02:10:07.997Z,100216.81
2017-11-23T02:12:35.508Z,100209.49
2017-11-23T02:15:03.024Z,100204.75
2017-11-23T02:17:30.516Z,100207.64
2017-11-23T02:19:58.000Z,100202.27
2017-11-23T02:22:25.548Z,100201.22
2017-11-23T02:24:53.033Z,100203.82
2017-11-23T02:27:20.529Z,100205.27
2017-11-23T02:29:48.055Z,100199.06
2017-11-23T02:32:15.536Z,100190.17
2017-11-23T02:34:43.029Z,100189.13
2017-11-23T02:37:10.562Z,100186.23
2017-11-23T02:39:38.053Z,100183.13
2017-11-23T02:42:05.550Z,100179.42
2017-11-23T02:44:33.108Z,100176.84
2017-11-23T02:47:00.601Z,100183.85
2017-11-23T02:49:28.091Z,100177.77
2017-11-23T02:51:55.618Z,100177.03
2017-11-23T02:54:23.108Z,100176.43
2017-11-23T02:56:50.602Z,100171.56
2017-11-23T02:59:18.149Z,100166.83
2017-11-23T03:01:45.704Z,100161.94
2017-11-23T03:04:13.204Z,100171.77
2017-11-23T03:06:40.712Z,100166.00
2017-11-23T03:09:08.232Z,100168.38
2017-11-23T03:11:35.721Z,100171.36
2017-11-23T03:14:03.211Z,100174.45
2017-11-23T03:16:30.736Z,100165.38
2017-11-23T03:18:58.227Z,100159.07
2017-11-23T03:21:25.707Z,100169.39
2017-11-23T03:23:53.237Z,100172.90
2017-11-23T03:26:20.725Z,100166.82
2017-11-23T03:28:48.221Z,100169.09
2017-11-23T03:31:15.730Z,100162.58
2017-11-23T03:33:43.215Z,100165.16
2017-11-23T03:36:10.760Z,100164.03
2017-11-23T03:38:38.285Z,100160.20
2017-11-23T03:41:05.794Z,100156.99
2017-11-23T03:43:33.321Z,100162.89
2017-11-23T03:46:00.808Z,100158.34
2017-11-23T03:48:28.300Z,100158.34
2017-11-23T03:50:56.433Z,100164.03
2017-11-23T03:53:23.967Z,100166.61
2017-11-23T03:55:51.455Z,100156.91
2017-11-23T03:58:18.946Z,100164.55
2017-11-23T04:00:46.465Z,100163.11
2017-11-23T04:03:13.952Z,100168.66
2017-11-23T04:05:41.528Z,100157.72
2017-11-23T04:08:09.097Z,100155.96
2017-11-23T04:10:36.591Z,100160.41
2017-11-23T04:13:04.113Z,100151.00
2017-11-23T04:15:31.592Z,100154.83
2017-11-23T04:17:59.088Z,100152.24
2017-11-23T04:20:26.625Z,100155.84
2017-11-23T04:22:54.150Z,100155.02
2017-11-23T04:25:21.664Z,100148.50
2017-11-23T04:27:49.220Z,100146.62
2017-11-23T04:30:16.715Z,100141.98
2017-11-23T04:32:44.205Z,100143.63
2017-11-23T04:35:11.738Z,100138.02
2017-11-23T04:37:39.225Z,100134.41
2017-11-23T04:40:06.750Z,100136.59
2017-11-23T04:42:34.246Z,100139.35
2017-11-23T04:45:01.741Z,100134.06
2017-11-23T04:47:29.276Z,100129.22
2017-11-23T04:49:56.774Z,100140.08
2017-11-23T04:52:24.270Z,100148.54
2017-11-23T04:54:51.908Z,100144.30
2017-11-23T04:57:19.391Z,100148.95
2017-11-23T04:59:46.881Z,100145.14
2017-11-23T05:02:14.392Z,100136.88
2017-11-23T05:04:42.025Z,100128.59
2017-11-23T05:07:09.513Z,100128.48
2017-11-23T05:09:37.049Z,100136.14
2017-11-23T05:12:04.571Z,100144.75
2017-11-23T05:14:32.064Z,100137.09
2017-11-23T05:16:59.549Z,100142.55
2017-11-23T05:19:27.082Z,100144.02
2017-11-23T05:21:54.576Z,100144.73
2017-11-23T05:24:22.064Z,100148.16
2017-11-23T05:26:49.657Z,100146.08
2017-11-23T05:29:17.197Z,100143.72
2017-11-23T05:31:44.683Z,100140.91
2017-11-23T05:34:12.224Z,100133.47
2017-11-23T05:36:39.746Z,100129.11
2017-11-23T05:39:07.236Z,100136.88
2017-11-23T05:41:34.720Z,100146.39
2017-11-23T05:44:02.236Z,100137.22
2017-11-23T05:46:29.746Z,100136.78
2017-11-23T05:48:57.240Z,100140.30
2017-11-23T05:51:24.757Z,100148.54
2017-11-23T05:53:52.249Z,100135.72
2017-11-23T05:56:19.741Z,100123.91
2017-11-23T05:58:47.332Z,100131.47
2017-11-23T06:01:14.825Z,100130.33
2017-11-23T06:03:42.355Z,100137.07
2017-11-23T06:06:09.854Z,100148.14
2017-11-23T06:08:37.369Z,100159.22
2017-11-23T06:11:04.881Z,100156.52
2017-11-23T06:13:32.400Z,100156.02
2017-11-23T06:15:59.876Z,100140.11
2017-11-23T06:18:27.361Z,100141.74
2017-11-23T06:20:55.261Z,100151.79
2017-11-23T06:23:22.836Z,100154.79
2017-11-23T06:25:50.345Z,100162.43
2017-11-23T06:28:17.876Z,100162.47
2017-11-23T06:30:45.361Z,100151.52
2017-11-23T06:33:12.912Z,100142.63
2017-11-23T06:35:40.425Z,100137.45
2017-11-23T06:38:08.155Z,100142.00
2017-11-23T06:40:35.656Z,100137.34
2017-11-23T06:43:03.142Z,100132.71
2017-11-23T06:45:30.666Z,100134.34
2017-11-23T06:47:58.158Z,100130.53
2017-11-23T06:50:25.641Z,100139.82
2017-11-23T06:52:53.197Z,100134.45
2017-11-23T06:55:20.698Z,100143.55
2017-11-23T06:57:48.185Z,100139.31
2017-11-23T07:00:15.853Z,100140.30
2017-11-23T07:02:43.346Z,100142.98
2017-11-23T07:05:10.867Z,100143.09
2017-11-23T07:07:38.474Z,100138.38
2017-11-23T07:10:05.956Z,100133.72
2017-11-23T07:12:33.574Z,100148.48
2017-11-23T07:15:01.133Z,100140.39
2017-11-23T07:17:28.713Z,100141.81
2017-11-23T07:19:56.198Z,100142.33
2017-11-23T07:22:23.713Z,100147.97
2017-11-23T07:24:51.245Z,100146.41
2017-11-23T07:27:18.744Z,100145.44
2017-11-23T07:29:46.229Z,100148.01
2017-11-23T07:32:13.854Z,100140.41
2017-11-23T07:34:41.407Z,100142.25
2017-11-23T07:37:08.930Z,100137.44
2017-11-23T07:39:36.520Z,100126.80
2017-11-23T07:42:04.002Z,100119.70
2017-11-23T07:44:31.509Z,100118.73
2017-11-23T07:46:59.018Z,100115.06
2017-11-23T07:49:26.559Z,100120.41
2017-11-23T07:51:54.122Z,100120.27
2017-11-23T07:54:21.620Z,100114.72
2017-11-23T07:56:49.161Z,100117.98
2017-11-23T07:59:16.694Z,100114.09
2017-11-23T08:01:44.250Z,100114.78
2017-11-23T08:04:11.815Z,100120.45
2017-11-23T08:06:39.385Z,100124.53
2017-11-23T08:09:06.930Z,100126.42
2017-11-23T08:11:34.425Z,100129.39
2017-11-23T08:14:01.912Z,100123.22
2017-11-23T08:16:29.427Z,100138.20
2017-11-23T08:18:56.916Z,100137.16
2017-11-23T08:21:25.074Z,100140.56
2017-11-23T08:23:52.752Z,100149.06
2017-11-23T08:26:20.245Z,100148.52
2017-11-23T08:28:47.782Z,100150.83
2017-11-23T08:31:15.264Z,100147.66
2017-11-23T08:33:42.767Z,100142.19
2017-11-23T08:36:10.408Z,100138.91
2017-11-23T08:38:37.979Z,100135.72
2017-11-23T08:41:05.524Z,100130.39
2017-11-23T08:43:33.011Z,100142.08
2017-11-23T08:46:00.496Z,100140.88
2017-11-23T08:48:28.027Z,100139.06
2017-11-23T08:50:55.513Z,100142.56
2017-11-23T08:53:23.072Z,100142.58
2017-11-23T08:55:50.588Z,100151.48
2017-11-23T08:58:18.096Z,100150.66
2017-11-23T09:00:45.618Z,100161.13
2017-11-23T09:03:13.145Z,100155.32
2017-11-23T09:05:44.188Z,100153.37
2017-11-23T09:08:11.669Z,100142.33
2017-11-23T09:10:39.293Z,100145.19
2017-11-23T09:13:08.604Z,100142.46
2017-11-23T09:15:36.089Z,100148.03
2017-11-23T09:18:03.704Z,100155.53
2017-11-23T09:20:31.391Z,100150.80
2017-11-23T09:22:58.925Z,100155.16
2017-11-23T09:25:26.412Z,100142.31
2017-11-23T09:27:53.966Z,100141.19
2017-11-23T09:30:21.479Z,100143.27
2017-11-23T09:32:49.077Z,100155.20
2017-11-23T09:35:16.564Z,100159.09
2017-11-23T09:37:44.182Z,100159.53
2017-11-23T09:40:11.704Z,100160.24
2017-11-23T09:42:39.197Z,100155.14
2017-11-23T09:45:06.756Z,100148.33
2017-11-23T09:47:34.322Z,100147.47
2017-11-23T09:50:01.817Z,100127.80
2017-11-23T09:52:29.302Z,100119.69
2017-11-23T09:54:56.871Z,100115.52
2017-11-23T09:57:24.473Z,100113.78
2017-11-23T09:59:51.960Z,100112.19
2017-11-23T10:02:19.488Z,100115.45
2017-11-23T10:04:46.976Z,100126.88
2017-11-23T10:07:14.461Z,100138.75
2017-11-23T10:09:41.985Z,100145.44
2017-11-23T10:12:09.524Z,100140.80
2017-11-23T10:14:42.813Z,100133.89
2017-11-23T10:17:10.297Z,100124.34
2017-11-23T10:19:37.782Z,100126.27
2017-11-23T10:22:05.310Z,100111.58
2017-11-23T10:24:32.807Z,100114.95
2017-11-23T10:27:00.305Z,100109.86
2017-11-23T10:29:27.826Z,100101.52
2017-11-23T10:31:55.320Z,100107.43
2017-11-23T10:34:23.712Z,100107.69
2017-11-23T10:36:51.215Z,100103.44
2017-11-23T10:39:18.716Z,100107.27
2017-11-23T10:41:46.243Z,100101.48
2017-11-23T10:44:13.744Z,100102.43
2017-11-23T10:46:41.289Z,100096.34
2017-11-23T10:49:08.829Z,100106.41
2017-11-23T10:51:36.337Z,100101.16
2017-11-23T10:54:03.853Z,100101.44
2017-11-23T10:56:31.367Z,100093.61
2017-11-23T10:58:58.853Z,100083.58
2017-11-23T11:01:26.427Z,100081.44
2017-11-23T11:03:53.942Z,100080.47
2017-11-23T11:06:21.426Z,100091.63
2017-11-23T11:08:48.963Z,100100.34
2017-11-23T11:11:16.474Z,100102.42
2017-11-23T11:13:44.030Z,100087.71
2017-11-23T11:16:11.562Z,100083.41
2017-11-23T11:18:39.071Z,100080.53
2017-11-23T11:21:06.578Z,100078.80
2017-11-23T11:23:34.150Z,100069.78
2017-11-23T11:26:01.727Z,100080.02
2017-11-23T11:28:29.258Z,100066.70
2017-11-23T11:30:57.445Z,100068.23
2017-11-23T11:33:24.937Z,100067.14
2017-11-23T11:35:52.477Z,100062.59
2017-11-23T11:38:20.005Z,100061.61
2017-11-23T11:40:47.569Z,100063.98
2017-11-23T11:43:15.084Z,100064.19
2017-11-23T11:45:42.572Z,100070.91
2017-11-23T11:50:43.937Z,100071.78
2017-11-23T11:53:11.460Z,100064.93
2017-11-23T11:55:38.995Z,100075.41
2017-11-23T11:58:06.512Z,100069.91
2017-11-23T12:00:34.039Z,100072.15
2017-11-23T12:03:01.569Z,100071.74
2017-11-23T12:05:29.069Z,100065.13
2017-11-23T12:07:56.642Z,100054.37
2017-11-23T12:10:24.132Z,100060.23
2017-11-23T12:12:51.628Z,100068.27
2017-11-23T12:15:31.003Z,100071.97
2017-11-23T12:21:13.198Z,100061.66
2017-11-23T12:23:44.141Z,100071.32
2017-11-23T12:26:11.645Z,100068.64
2017-11-23T12:28:50.929Z,100068.88
2017-11-23T12:31:18.420Z,100054.80
2017-11-23T12:33:46.093Z,100050.83
2017-11-23T12:36:13.581Z,100052.48
2017-11-23T12:38:41.076Z,100052.75
2017-11-23T12:41:08.672Z,100053.44
2017-11-23T12:43:36.196Z,100046.72
2017-11-23T12:46:03.689Z,100053.67
2017-11-23T12:48:31.213Z,100052.70
2017-11-23T12:50:58.708Z,100049.68
2017-11-23T12:53:26.268Z,100044.52
2017-11-23T12:55:53.772Z,100042.48
2017-11-23T12:58:21.276Z,100029.62
2017-11-23T13:00:48.801Z,100032.61
2017-11-23T13:03:16.298Z,100030.87
2017-11-23T13:05:43.828Z,100041.16
2017-11-23T13:08:11.327Z,100049.44
2017-11-23T13:10:38.817Z,100059.48
2017-11-23T13:13:06.360Z,100056.53
2017-11-23T13:15:33.849Z,100045.94
2017-11-23T13:18:01.341Z,100053.84
2017-11-23T13:20:29.779Z,100043.22
2017-11-23T13:22:57.282Z,100042.27
2017-11-23T13:25:24.776Z,100039.80
2017-11-23T13:27:52.344Z,100049.06
2017-11-23T13:30:19.838Z,100052.18
2017-11-23T13:32:47.368Z,100055.09
2017-11-23T13:35:14.865Z,100066.77
2017-11-23T13:37:42.365Z,100075.21
2017-11-23T13:40:09.895Z,100076.03
2017-11-23T13:42:37.421Z,100074.70
2017-11-23T13:45:04.920Z,100067.67
2017-11-23T13:47:32.419Z,100060.75
2017-11-23T13:49:59.949Z,100055.99
2017-11-23T13:52:27.512Z,100055.34
2017-11-23T13:54:55.031Z,100059.17
2017-11-23T13:57:22.564Z,100058.36
2017-11-23T13:59:50.088Z,100054.86
2017-11-23T14:02:17.594Z,100054.59
2017-11-23T14:04:45.195Z,100066.40
2017-11-23T14:07:12.685Z,100076.72
2017-11-23T14:09:40.200Z,100077.39
2017-11-23T14:12:07.974Z,100099.97
2017-11-23T14:14:35.467Z,100100.67
2017-11-23T14:17:02.965Z,100084.95
2017-11-23T14:19:30.505Z,100081.69
2017-11-23T14:21:58.035Z,100094.08
2017-11-23T14:24:25.536Z,100094.41
2017-11-23T14:26:53.033Z,100077.83
2017-11-23T14:29:20.558Z,100070.94
2017-11-23T14:31:48.049Z,100069.09
2017-11-23T14:34:15.583Z,100086.39
2017-11-23T14:36:43.139Z,100088.35
2017-11-23T14:39:10.718Z,100090.28
2017-11-23T14:41:38.201Z,100082.89
2017-11-23T14:44:05.722Z,100083.89
2017-11-23T14:46:33.261Z,100101.47
2017-11-23T14:49:00.847Z,100109.80
2017-11-23T14:51:28.349Z,100099.39
2017-11-23T14:56:29.753Z,100095.47
2017-11-23T14:58:57.269Z,100115.61
2017-11-23T15:01:24.798Z,100122.84
2017-11-23T15:03:52.289Z,100130.20
2017-11-23T15:06:19.898Z,100129.80
2017-11-23T15:08:47.525Z,100126.54
2017-11-23T15:11:15.024Z,100134.78
2017-11-23T15:13:42.578Z,100143.56
2017-11-23T15:16:10.068Z,100141.39
2017-11-23T15:18:37.562Z,100145.70
2017-11-23T15:21:05.112Z,100147.40
2017-11-23T15:23:32.622Z,100152.72
2017-11-23T15:26:00.136Z,100151.70
2017-11-23T15:28:27.664Z,100151.80
2017-11-23T15:30:55.186Z,100151.05
2017-11-23T15:33:22.680Z,100151.48
2017-11-23T15:35:50.198Z,100155.24
2017-11-23T15:38:17.698Z,100152.99
2017-11-23T15:40:45.250Z,100154.99
2017-11-23T15:43:12.771Z,100157.20
2017-11-23T15:45:40.273Z,100160.66
2017-11-23T15:48:07.844Z,100160.86
2017-11-23T15:50:35.332Z,100153.77
2017-11-23T15:53:02.838Z,100155.69
2017-11-23T15:55:30.353Z,100151.48
2017-11-23T15:57:57.849Z,100155.83
2017-11-23T16:00:25.382Z,100156.23
2017-11-23T16:02:52.963Z,100165.95
2017-11-23T16:05:20.499Z,100168.35
2017-11-23T16:07:47.985Z,100171.53
2017-11-23T16:10:15.512Z,100165.42
2017-11-23T16:12:43.003Z,100170.80
2017-11-23T16:15:10.510Z,100166.17
2017-11-23T16:17:38.049Z,100174.03
2017-11-23T16:20:05.541Z,100168.79
2017-11-23T16:22:33.079Z,100186.96
2017-11-23T16:25:00.600Z,100190.72
2017-11-23T16:27:28.099Z,100202.20
2017-11-23T16:29:55.629Z,100204.74
2017-11-23T16:32:23.163Z,100213.23
2017-11-23T16:34:50.681Z,100198.80
2017-11-23T16:37:34.009Z,100204.27
2017-11-23T16:40:02.368Z,100201.96
2017-11-23T16:42:29.860Z,100202.46
2017-11-23T16:48:06.236Z,100205.01
2017-11-23T16:50:49.530Z,100206.28
2017-11-23T16:53:22.586Z,100213.94
2017-11-23T16:55:55.581Z,100219.45
2017-11-23T17:01:34.075Z,100220.90
2017-11-23T17:07:08.493Z,100220.72
2017-11-23T17:09:37.589Z,100231.52
2017-11-23T17:15:17.094Z,100232.09
2017-11-23T17:18:04.067Z,100239.46
2017-11-23T17:20:31.588Z,100249.23
2017-11-23T17:22:59.108Z,100254.29
2017-11-23T17:25:26.608Z,100255.56
2017-11-23T17:27:54.151Z,100256.58
2017-11-23T17:30:21.684Z,100254.86
2017-11-23T17:32:49.176Z,100265.38
2017-11-23T17:35:16.703Z,100250.81
2017-11-23T17:37:44.207Z,100265.86
2017-11-23T17:40:11.695Z,100258.64
2017-11-23T17:42:39.225Z,100257.02
2017-11-23T17:45:06.722Z,100257.69
2017-11-23T17:47:34.231Z,100262.89
2017-11-23T17:50:01.746Z,100268.55
2017-11-23T17:52:29.307Z,100265.88
2017-11-23T17:54:56.823Z,100267.66
2017-11-23T17:57:24.306Z,100273.61
2017-11-23T17:59:51.784Z,100277.52
2017-11-23T18:02:19.332Z,100275.32
2017-11-23T18:04:46.823Z,100273.12
2017-11-23T18:07:14.319Z,100282.45
2017-11-23T18:09:41.841Z,100284.55
2017-11-23T18:12:09.335Z,100281.85
2017-11-23T18:14:36.825Z,100286.69
2017-11-23T18:17:04.394Z,100290.77
2017-11-23T18:19:31.890Z,100283.55
2017-11-23T18:21:59.413Z,100286.12
2017-11-23T18:24:26.921Z,100283.09
2017-11-23T18:26:54.420Z,100290.48
2017-11-23T18:29:21.998Z,100288.42
2017-11-23T18:31:49.494Z,100287.87
2017-11-23T18:34:17.019Z,100295.08
2017-11-23T18:36:44.512Z,100294.20
2017-11-23T18:39:12.009Z,100296.93
2017-11-23T18:41:39.557Z,100289.09
2017-11-23T18:44:07.055Z,100292.24
2017-11-23T18:46:34.715Z,100295.81
2017-11-23T18:49:02.232Z,100297.30
2017-11-23T18:51:29.730Z,100298.36
2017-11-23T18:53:57.265Z,100300.08
2017-11-23T18:56:24.764Z,100303.83
2017-11-23T18:58:52.269Z,100310.90
2017-11-23T19:01:19.803Z,100308.78
2017-11-23T19:03:47.316Z,100300.73
2017-11-23T19:06:14.873Z,100314.26
2017-11-23T19:08:42.408Z,100302.82
2017-11-23T19:11:09.898Z,100305.90
2017-11-23T19:13:37.513Z,100312.46
2017-11-23T19:16:05.055Z,100314.18
2017-11-23T19:18:32.553Z,100315.98
2017-11-23T19:21:00.035Z,100320.06
2017-11-23T19:23:27.552Z,100327.06
2017-11-23T19:25:55.073Z,100321.41
2017-11-23T19:28:22.612Z,100321.18
2017-11-23T19:30:50.136Z,100321.41
2017-11-23T19:33:17.653Z,100326.38
2017-11-23T19:35:45.173Z,100341.39
2017-11-23T19:38:12.702Z,100331.98
2017-11-23T19:40:40.203Z,100338.43
2017-11-23T19:43:07.784Z,100333.01
2017-11-23T19:45:35.313Z,100338.87
2017-11-23T19:48:02.812Z,100336.34
2017-11-23T19:50:30.310Z,100337.11
2017-11-23T19:52:57.840Z,100341.84
2017-11-23T19:55:25.359Z,100345.19
2017-11-23T19:57:52.845Z,100346.31
2017-11-23T20:00:20.378Z,100349.66
2017-11-23T20:02:47.873Z,100355.95
2017-11-23T20:05:15.472Z,100351.94
2017-11-23T20:07:43.043Z,100359.66
2017-11-23T20:10:10.552Z,100364.32
2017-11-23T20:12:38.044Z,100360.63
2017-11-23T20:15:05.576Z,100361.41
2017-11-23T20:17:33.116Z,100368.59
2017-11-23T20:20:00.612Z,100371.41
2017-11-23T20:22:28.101Z,100371.09
2017-11-23T20:24:55.621Z,100371.01
2017-11-23T20:27:23.171Z,100369.16
2017-11-23T20:29:50.660Z,100375.58
2017-11-23T20:32:18.153Z,100381.59
2017-11-23T20:34:45.693Z,100380.70
2017-11-23T20:37:13.202Z,100380.52
2017-11-23T20:39:40.705Z,100381.91
2017-11-23T20:42:08.246Z,100385.03
2017-11-23T20:44:35.785Z,100385.34
2017-11-23T20:47:03.287Z,100393.27
2017-11-23T20:49:30.840Z,100389.10
2017-11-23T20:51:58.360Z,100390.09
2017-11-23T20:54:25.871Z,100390.91
2017-11-23T20:56:53.571Z,100393.80
2017-11-23T20:59:21.097Z,100404.13
2017-11-23T21:01:48.620Z,100403.76
2017-11-23T21:04:16.191Z,100410.18
2017-11-23T21:06:43.803Z,100417.29
2017-11-23T21:09:11.297Z,100421.14
2017-11-23T21:11:38.803Z,100426.70
2017-11-23T21:14:06.340Z,100418.83
2017-11-23T21:16:33.838Z,100428.88
2017-11-23T21:19:01.342Z,100432.90
2017-11-23T21:21:28.904Z,100437.28
2017-11-23T21:23:56.466Z,100443.22
2017-11-23T21:26:24.257Z,100452.66
2017-11-23T21:28:51.776Z,100452.30
2017-11-23T21:31:19.272Z,100454.34
2017-11-23T21:33:46.803Z,100449.23
2017-11-23T21:36:15.270Z,100455.34
2017-11-23T21:38:42.765Z,100464.84
2017-11-23T21:41:10.298Z,100461.36
2017-11-23T21:43:37.862Z,100469.09
2017-11-23T21:46:05.352Z,100466.51
2017-11-23T21:48:32.866Z,100467.28
2017-11-23T21:51:00.367Z,100463.03
2017-11-23T21:53:27.934Z,100463.57
2017-11-23T21:55:55.426Z,100459.81
2017-11-23T21:58:22.926Z,100463.94
2017-11-23T22:00:50.536Z,100461.08
2017-11-23T22:03:18.051Z,100461.03
2017-11-23T22:05:45.554Z,100472.30
2017-11-23T22:08:13.135Z,100476.23
2017-11-23T22:10:40.708Z,100483.84
2017-11-23T22:13:08.195Z,100477.95
2017-11-23T22:15:35.717Z,100488.01
2017-11-23T22:18:03.281Z,100499.09
2017-11-23T22:20:30.829Z,100508.28
2017-11-23T22:22:58.330Z,100508.47
2017-11-23T22:25:25.835Z,100518.05
2017-11-23T22:27:53.366Z,100519.77
2017-11-23T22:30:20.872Z,100526.24
2017-11-23T22:32:48.365Z,100522.74
2017-11-23T22:35:15.904Z,100526.05
2017-11-23T22:37:43.408Z,100523.15
2017-11-23T22:40:10.919Z,100533.23
2017-11-23T22:42:38.436Z,100534.78
2017-11-23T22:45:05.939Z,100531.39
2017-11-23T22:47:33.456Z,100510.94
2017-11-23T22:50:00.963Z,100514.87
2017-11-23T22:52:28.489Z,100526.27
2017-11-23T22:54:56.044Z,100531.08
2017-11-23T22:57:23.549Z,100530.14
2017-11-23T22:59:51.048Z,100529.91
2017-11-23T23:02:18.567Z,100532.85
2017-11-23T23:04:46.068Z,100526.34
2017-11-23T23:07:13.598Z,100533.44
2017-11-23T23:09:41.148Z,100542.00
2017-11-23T23:12:08.659Z,100558.61
2017-11-23T23:14:36.158Z,100563.00
2017-11-23T23:17:03.778Z,100561.92
2017-11-23T23:19:31.279Z,100557.84
2017-11-23T23:21:58.793Z,100555.67
2017-11-23T23:24:26.313Z,100553.08
2017-11-23T23:26:53.815Z,100552.49
2017-11-23T23:29:21.377Z,100557.20
2017-11-23T23:31:48.907Z,100558.20
2017-11-23T23:34:16.440Z,100554.21
2017-11-23T23:36:44.032Z,100550.09
2017-11-23T23:39:11.526Z,100545.06
2017-11-23T23:41:39.055Z,100544.76
2017-11-23T23:44:06.617Z,100545.84
2017-11-23T23:46:34.122Z,100545.30
2017-11-23T23:49:01.623Z,100543.66
2017-11-23T23:51:29.146Z,100537.64
2017-11-23T23:53:56.633Z,100537.88
2017-11-23T23:56:24.141Z,100536.88
2017-11-23T23:58:51.670Z,100529.63
